sensor_id;sensor_type;location;lat;lon;timestamp;pressure;altitude;pressure_sealevel;temperature;humidity
80976;BME280;70437;49.466;11.002;2024-02-26T00:02:18;96530.91;;;4.57;100.00
80976;BME280;70437;49.466;11.002;2024-02-26T00:04:49;96519.56;;;4.50;100.00
80976;BME280;70437;49.466;11.002;2024-02-26T00:07:19;96513.47;;;4.50;100.00
80976;BME280;70437;49.466;11.002;2024-02-26T00:09:49;96516.22;;;4.43;100.00
80976;BME280;70437;49.466;11.002;2024-02-26T00:12:21;96509.72;;;4.39;100.00
80976;BME280;70437;49.466;11.002;2024-02-26T00:14:50;96509.59;;;4.34;100.00
80976;BME280;70437;49.466;11.002;2024-02-26T00:17:23;96509.09;;;4.25;100.00
80976;BME280;70437;49.466;11.002;2024-02-26T00:19:56;96499.28;;;4.26;100.00
80976;BME280;70437;49.466;11.002;2024-02-26T00:22:25;96501.28;;;4.30;100.00
80976;BME280;70437;49.466;11.002;2024-02-26T00:24:55;96499.00;;;4.34;100.00
80976;BME280;70437;49.466;11.002;2024-02-26T00:27:27;96501.09;;;4.44;100.00
80976;BME280;70437;49.466;11.002;2024-02-26T00:29:57;96492.72;;;4.47;100.00
80976;BME280;70437;49.466;11.002;2024-02-26T00:32:27;96497.47;;;4.56;100.00
80976;BME280;70437;49.466;11.002;2024-02-26T00:34:57;96492.03;;;4.51;100.00
80976;BME280;70437;49.466;11.002;2024-02-26T00:37:29;96487.41;;;4.47;100.00
80976;BME280;70437;49.466;11.002;2024-02-26T00:39:58;96490.31;;;4.57;100.00
80976;BME280;70437;49.466;11.002;2024-02-26T00:42:27;96480.50;;;4.57;100.00
80976;BME280;70437;49.466;11.002;2024-02-26T00:44:59;96482.44;;;4.50;100.00
80976;BME280;70437;49.466;11.002;2024-02-26T00:47:28;96480.94;;;4.43;100.00
80976;BME280;70437;49.466;11.002;2024-02-26T00:49:59;96480.03;;;4.49;100.00
80976;BME280;70437;49.466;11.002;2024-02-26T00:52:29;96489.47;;;4.45;100.00
80976;BME280;70437;49.466;11.002;2024-02-26T00:54:59;96482.28;;;4.34;100.00
80976;BME280;70437;49.466;11.002;2024-02-26T00:57:31;96486.78;;;4.33;100.00
80976;BME280;70437;49.466;11.002;2024-02-26T01:00:02;96483.75;;;4.29;100.00
80976;BME280;70437;49.466;11.002;2024-02-26T01:02:33;96492.16;;;4.26;100.00
80976;BME280;70437;49.466;11.002;2024-02-26T01:05:06;96486.34;;;4.18;100.00
80976;BME280;70437;49.466;11.002;2024-02-26T01:07:40;96490.03;;;4.17;100.00
80976;BME280;70437;49.466;11.002;2024-02-26T01:10:09;96489.78;;;4.18;100.00
80976;BME280;70437;49.466;11.002;2024-02-26T01:12:39;96486.94;;;4.20;100.00
80976;BME280;70437;49.466;11.002;2024-02-26T01:15:10;96487.09;;;4.07;100.00
80976;BME280;70437;49.466;11.002;2024-02-26T01:17:39;96493.78;;;3.91;100.00
80976;BME280;70437;49.466;11.002;2024-02-26T01:20:12;96495.03;;;3.88;100.00
80976;BME280;70437;49.466;11.002;2024-02-26T01:22:47;96488.63;;;3.96;100.00
80976;BME280;70437;49.466;11.002;2024-02-26T01:25:19;96493.66;;;3.86;100.00
80976;BME280;70437;49.466;11.002;2024-02-26T01:27:50;96489.06;;;3.93;100.00
80976;BME280;70437;49.466;11.002;2024-02-26T01:30:19;96486.50;;;4.04;100.00
80976;BME280;70437;49.466;11.002;2024-02-26T01:32:52;96482.38;;;4.09;100.00
80976;BME280;70437;49.466;11.002;2024-02-26T01:35:23;96480.28;;;4.11;100.00
80976;BME280;70437;49.466;11.002;2024-02-26T01:37:54;96475.72;;;4.18;100.00
80976;BME280;70437;49.466;11.002;2024-02-26T01:40:27;96476.59;;;4.30;100.00
80976;BME280;70437;49.466;11.002;2024-02-26T01:42:59;96469.81;;;4.34;100.00
80976;BME280;70437;49.466;11.002;2024-02-26T01:45:29;96471.03;;;4.50;100.00
80976;BME280;70437;49.466;11.002;2024-02-26T01:48:02;96471.88;;;4.62;100.00
80976;BME280;70437;49.466;11.002;2024-02-26T01:50:36;96461.03;;;4.64;100.00
80976;BME280;70437;49.466;11.002;2024-02-26T01:53:09;96463.13;;;4.62;100.00
80976;BME280;70437;49.466;11.002;2024-02-26T01:55:39;96461.00;;;4.52;100.00
80976;BME280;70437;49.466;11.002;2024-02-26T01:58:09;96465.84;;;4.55;100.00
80976;BME280;70437;49.466;11.002;2024-02-26T02:00:39;96465.28;;;4.53;100.00
80976;BME280;70437;49.466;11.002;2024-02-26T02:03:09;96475.78;;;4.60;100.00
80976;BME280;70437;49.466;11.002;2024-02-26T02:05:40;96479.84;;;4.62;100.00
80976;BME280;70437;49.466;11.002;2024-02-26T02:08:11;96476.63;;;4.60;100.00
80976;BME280;70437;49.466;11.002;2024-02-26T02:10:43;96476.63;;;4.60;100.00
80976;BME280;70437;49.466;11.002;2024-02-26T02:13:19;96478.22;;;4.61;100.00
80976;BME280;70437;49.466;11.002;2024-02-26T02:15:48;96477.19;;;4.62;100.00
80976;BME280;70437;49.466;11.002;2024-02-26T02:18:19;96481.56;;;4.68;100.00
80976;BME280;70437;49.466;11.002;2024-02-26T02:20:51;96476.75;;;4.77;100.00
80976;BME280;70437;49.466;11.002;2024-02-26T02:23:21;96478.03;;;4.86;100.00
80976;BME280;70437;49.466;11.002;2024-02-26T02:25:52;96472.44;;;5.06;100.00
80976;BME280;70437;49.466;11.002;2024-02-26T02:28:23;96465.53;;;5.05;100.00
80976;BME280;70437;49.466;11.002;2024-02-26T02:30:55;96475.53;;;5.03;100.00
80976;BME280;70437;49.466;11.002;2024-02-26T02:33:28;96478.19;;;5.03;100.00
80976;BME280;70437;49.466;11.002;2024-02-26T02:36:02;96485.72;;;5.06;100.00
80976;BME280;70437;49.466;11.002;2024-02-26T02:38:31;96491.13;;;4.99;100.00
80976;BME280;70437;49.466;11.002;2024-02-26T02:41:02;96493.44;;;4.96;100.00
80976;BME280;70437;49.466;11.002;2024-02-26T02:43:32;96482.91;;;4.89;100.00
80976;BME280;70437;49.466;11.002;2024-02-26T02:46:02;96479.41;;;4.77;100.00
80976;BME280;70437;49.466;11.002;2024-02-26T02:48:32;96472.72;;;4.74;100.00
80976;BME280;70437;49.466;11.002;2024-02-26T02:51:04;96473.78;;;4.73;100.00
80976;BME280;70437;49.466;11.002;2024-02-26T02:53:33;96475.75;;;4.78;100.00
80976;BME280;70437;49.466;11.002;2024-02-26T02:56:04;96466.41;;;4.87;100.00
80976;BME280;70437;49.466;11.002;2024-02-26T02:58:38;96471.50;;;4.89;100.00
80976;BME280;70437;49.466;11.002;2024-02-26T03:01:08;96470.91;;;4.98;100.00
80976;BME280;70437;49.466;11.002;2024-02-26T03:03:37;96474.03;;;4.95;100.00
80976;BME280;70437;49.466;11.002;2024-02-26T03:06:07;96469.31;;;4.97;100.00
80976;BME280;70437;49.466;11.002;2024-02-26T03:08:37;96465.84;;;5.08;100.00
80976;BME280;70437;49.466;11.002;2024-02-26T03:11:12;96459.28;;;5.11;100.00
80976;BME280;70437;49.466;11.002;2024-02-26T03:13:42;96461.94;;;5.11;100.00
80976;BME280;70437;49.466;11.002;2024-02-26T03:16:11;96463.44;;;5.07;100.00
80976;BME280;70437;49.466;11.002;2024-02-26T03:18:41;96462.88;;;5.05;100.00
80976;BME280;70437;49.466;11.002;2024-02-26T03:21:12;96463.09;;;5.03;100.00
80976;BME280;70437;49.466;11.002;2024-02-26T03:23:43;96460.44;;;5.03;100.00
80976;BME280;70437;49.466;11.002;2024-02-26T03:26:14;96460.44;;;5.03;100.00
80976;BME280;70437;49.466;11.002;2024-02-26T03:28:43;96466.78;;;5.02;100.00
80976;BME280;70437;49.466;11.002;2024-02-26T03:31:12;96464.13;;;5.02;100.00
80976;BME280;70437;49.466;11.002;2024-02-26T03:33:42;96473.22;;;4.95;100.00
80976;BME280;70437;49.466;11.002;2024-02-26T03:36:13;96471.81;;;4.80;100.00
80976;BME280;70437;49.466;11.002;2024-02-26T03:38:43;96481.72;;;4.73;100.00
80976;BME280;70437;49.466;11.002;2024-02-26T03:41:15;96477.91;;;4.69;100.00
80976;BME280;70437;49.466;11.002;2024-02-26T03:43:45;96473.28;;;4.65;100.00
80976;BME280;70437;49.466;11.002;2024-02-26T03:46:15;96479.75;;;4.69;100.00
80976;BME280;70437;49.466;11.002;2024-02-26T03:48:44;96469.34;;;4.67;100.00
80976;BME280;70437;49.466;11.002;2024-02-26T03:51:15;96470.97;;;4.68;100.00
80976;BME280;70437;49.466;11.002;2024-02-26T03:53:45;96463.25;;;4.67;100.00
80976;BME280;70437;49.466;11.002;2024-02-26T03:56:15;96464.50;;;4.64;100.00
80976;BME280;70437;49.466;11.002;2024-02-26T03:58:47;96466.69;;;4.67;100.00
80976;BME280;70437;49.466;11.002;2024-02-26T04:01:16;96462.06;;;4.63;100.00
80976;BME280;70437;49.466;11.002;2024-02-26T04:03:46;96458.75;;;4.67;100.00
80976;BME280;70437;49.466;11.002;2024-02-26T04:06:16;96468.66;;;4.72;100.00
80976;BME280;70437;49.466;11.002;2024-02-26T04:08:50;96464.97;;;4.73;100.00
80976;BME280;70437;49.466;11.002;2024-02-26T04:11:19;96470.28;;;4.73;100.00
80976;BME280;70437;49.466;11.002;2024-02-26T04:13:51;96467.75;;;4.66;100.00
80976;BME280;70437;49.466;11.002;2024-02-26T04:16:20;96479.53;;;4.70;100.00
80976;BME280;70437;49.466;11.002;2024-02-26T04:19:14;96480.31;;;4.71;100.00
80976;BME280;70437;49.466;11.002;2024-02-26T04:21:49;96475.94;;;4.65;100.00
80976;BME280;70437;49.466;11.002;2024-02-26T04:24:19;96472.38;;;4.71;100.00
80976;BME280;70437;49.466;11.002;2024-02-26T04:26:51;96473.78;;;4.73;100.00
80976;BME280;70437;49.466;11.002;2024-02-26T04:29:21;96468.66;;;4.72;100.00
80976;BME280;70437;49.466;11.002;2024-02-26T04:31:51;96473.63;;;4.68;100.00
80976;BME280;70437;49.466;11.002;2024-02-26T04:34:22;96473.28;;;4.76;100.00
80976;BME280;70437;49.466;11.002;2024-02-26T04:36:55;96474.78;;;4.72;100.00
80976;BME280;70437;49.466;11.002;2024-02-26T04:39:24;96473.66;;;4.80;100.00
80976;BME280;70437;49.466;11.002;2024-02-26T04:42:09;96482.34;;;4.87;100.00
80976;BME280;70437;49.466;11.002;2024-02-26T04:44:45;96486.16;;;4.91;100.00
80976;BME280;70437;49.466;11.002;2024-02-26T04:47:14;96485.19;;;4.86;100.00
80976;BME280;70437;49.466;11.002;2024-02-26T04:49:49;96488.56;;;4.93;100.00
80976;BME280;70437;49.466;11.002;2024-02-26T04:52:22;96486.97;;;4.92;100.00
80976;BME280;70437;49.466;11.002;2024-02-26T04:55:00;96487.16;;;4.90;100.00
80976;BME280;70437;49.466;11.002;2024-02-26T04:57:30;96495.72;;;4.92;100.00
80976;BME280;70437;49.466;11.002;2024-02-26T05:00:04;96493.53;;;4.89;100.00
80976;BME280;70437;49.466;11.002;2024-02-26T05:02:34;96489.25;;;4.88;100.00
80976;BME280;70437;49.466;11.002;2024-02-26T05:05:08;96487.16;;;4.90;100.00
80976;BME280;70437;49.466;11.002;2024-02-26T05:07:52;96492.59;;;4.84;100.00
80976;BME280;70437;49.466;11.002;2024-02-26T05:10:40;96496.53;;;4.93;100.00
80976;BME280;70437;49.466;11.002;2024-02-26T05:13:15;96491.59;;;4.96;100.00
80976;BME280;70437;49.466;11.002;2024-02-26T05:15:46;96484.31;;;4.92;100.00
80976;BME280;70437;49.466;11.002;2024-02-26T05:18:17;96484.75;;;4.89;100.00
80976;BME280;70437;49.466;11.002;2024-02-26T05:20:48;96493.56;;;5.01;100.00
80976;BME280;70437;49.466;11.002;2024-02-26T05:23:23;96495.28;;;5.07;100.00
80976;BME280;70437;49.466;11.002;2024-02-26T05:25:56;96497.63;;;5.15;100.00
80976;BME280;70437;49.466;11.002;2024-02-26T05:28:32;96501.53;;;5.13;100.00
80976;BME280;70437;49.466;11.002;2024-02-26T05:31:03;96500.50;;;5.14;100.00
80976;BME280;70437;49.466;11.002;2024-02-26T05:33:35;96506.03;;;5.12;100.00
80976;BME280;70437;49.466;11.002;2024-02-26T05:36:05;96505.59;;;5.15;100.00
80976;BME280;70437;49.466;11.002;2024-02-26T05:38:37;96507.78;;;5.18;100.00
80976;BME280;70437;49.466;11.002;2024-02-26T05:41:12;96515.75;;;5.30;100.00
80976;BME280;70437;49.466;11.002;2024-02-26T05:43:41;96517.22;;;5.02;100.00
80976;BME280;70437;49.466;11.002;2024-02-26T05:46:10;96524.56;;;4.89;100.00
80976;BME280;70437;49.466;11.002;2024-02-26T05:48:39;96515.72;;;5.06;100.00
80976;BME280;70437;49.466;11.002;2024-02-26T05:51:17;96521.97;;;5.12;100.00
80976;BME280;70437;49.466;11.002;2024-02-26T05:53:48;96527.19;;;5.19;100.00
80976;BME280;70437;49.466;11.002;2024-02-26T05:56:23;96518.47;;;5.00;100.00
80976;BME280;70437;49.466;11.002;2024-02-26T05:58:55;96518.63;;;5.05;100.00
80976;BME280;70437;49.466;11.002;2024-02-26T06:01:24;96525.22;;;5.14;100.00
80976;BME280;70437;49.466;11.002;2024-02-26T06:03:54;96525.16;;;5.02;100.00
80976;BME280;70437;49.466;11.002;2024-02-26T06:06:24;96528.13;;;4.82;100.00
80976;BME280;70437;49.466;11.002;2024-02-26T06:08:54;96525.66;;;4.69;100.00
80976;BME280;70437;49.466;11.002;2024-02-26T06:11:26;96514.75;;;4.89;100.00
80976;BME280;70437;49.466;11.002;2024-02-26T06:13:57;96525.53;;;5.18;100.00
80976;BME280;70437;49.466;11.002;2024-02-26T06:16:31;96520.63;;;5.33;100.00
80976;BME280;70437;49.466;11.002;2024-02-26T06:19:00;96525.47;;;5.48;100.00
80976;BME280;70437;49.466;11.002;2024-02-26T06:21:31;96525.16;;;5.68;100.00
80976;BME280;70437;49.466;11.002;2024-02-26T06:24:17;96525.94;;;5.80;100.00
80976;BME280;70437;49.466;11.002;2024-02-26T06:26:49;96532.88;;;5.93;100.00
80976;BME280;70437;49.466;11.002;2024-02-26T06:29:19;96534.28;;;5.95;100.00
80976;BME280;70437;49.466;11.002;2024-02-26T06:31:48;96543.72;;;6.15;100.00
80976;BME280;70437;49.466;11.002;2024-02-26T06:34:18;96545.47;;;6.21;100.00
80976;BME280;70437;49.466;11.002;2024-02-26T06:36:49;96542.81;;;5.97;100.00
80976;BME280;70437;49.466;11.002;2024-02-26T06:39:20;96548.47;;;5.77;100.00
80976;BME280;70437;49.466;11.002;2024-02-26T06:41:49;96551.47;;;5.69;100.00
80976;BME280;70437;49.466;11.002;2024-02-26T06:44:23;96552.63;;;5.62;100.00
80976;BME280;70437;49.466;11.002;2024-02-26T06:46:53;96540.28;;;5.67;100.00
80976;BME280;70437;49.466;11.002;2024-02-26T06:49:25;96542.94;;;5.67;100.00
80976;BME280;70437;49.466;11.002;2024-02-26T06:51:55;96548.56;;;5.71;100.00
80976;BME280;70437;49.466;11.002;2024-02-26T06:54:26;96545.47;;;5.74;100.00
80976;BME280;70437;49.466;11.002;2024-02-26T06:56:55;96549.84;;;5.56;100.00
80976;BME280;70437;49.466;11.002;2024-02-26T06:59:26;96557.50;;;5.76;100.00
80976;BME280;70437;49.466;11.002;2024-02-26T07:01:56;96560.84;;;5.72;100.00
80976;BME280;70437;49.466;11.002;2024-02-26T07:04:31;96572.38;;;5.89;100.00
80976;BME280;70437;49.466;11.002;2024-02-26T07:07:11;96568.34;;;5.87;100.00
80976;BME280;70437;49.466;11.002;2024-02-26T07:09:43;96567.31;;;5.88;100.00
80976;BME280;70437;49.466;11.002;2024-02-26T07:12:12;96567.06;;;5.89;100.00
80976;BME280;70437;49.466;11.002;2024-02-26T07:14:43;96565.00;;;5.91;100.00
80976;BME280;70437;49.466;11.002;2024-02-26T07:17:13;96554.84;;;6.00;100.00
80976;BME280;70437;49.466;11.002;2024-02-26T07:19:46;96578.44;;;5.96;100.00
80976;BME280;70437;49.466;11.002;2024-02-26T07:22:17;96603.88;;;6.04;100.00
80976;BME280;70437;49.466;11.002;2024-02-26T07:24:50;96596.78;;;6.10;100.00
80976;BME280;70437;49.466;11.002;2024-02-26T07:27:20;96601.88;;;6.23;100.00
80976;BME280;70437;49.466;11.002;2024-02-26T07:29:49;96600.94;;;6.29;100.00
80976;BME280;70437;49.466;11.002;2024-02-26T07:32:19;96597.72;;;6.39;100.00
80976;BME280;70437;49.466;11.002;2024-02-26T07:34:52;96597.16;;;6.65;100.00
80976;BME280;70437;49.466;11.002;2024-02-26T07:37:21;96582.69;;;6.73;100.00
80976;BME280;70437;49.466;11.002;2024-02-26T07:39:51;96596.06;;;6.78;100.00
80976;BME280;70437;49.466;11.002;2024-02-26T07:42:23;96587.63;;;6.81;100.00
80976;BME280;70437;49.466;11.002;2024-02-26T07:44:56;96589.28;;;6.99;100.00
80976;BME280;70437;49.466;11.002;2024-02-26T07:47:27;96585.63;;;7.17;100.00
80976;BME280;70437;49.466;11.002;2024-02-26T07:50:02;96588.25;;;7.28;100.00
80976;BME280;70437;49.466;11.002;2024-02-26T07:52:32;96583.22;;;7.32;98.56
80976;BME280;70437;49.466;11.002;2024-02-26T07:55:04;96584.22;;;7.43;97.23
80976;BME280;70437;49.466;11.002;2024-02-26T07:57:34;96590.59;;;7.42;95.16
80976;BME280;70437;49.466;11.002;2024-02-26T08:00:09;96595.63;;;7.55;93.18
80976;BME280;70437;49.466;11.002;2024-02-26T08:02:40;96602.47;;;7.51;93.87
80976;BME280;70437;49.466;11.002;2024-02-26T08:05:13;96602.78;;;7.54;92.05
80976;BME280;70437;49.466;11.002;2024-02-26T08:07:42;96615.22;;;7.49;89.83
80976;BME280;70437;49.466;11.002;2024-02-26T08:10:18;96619.41;;;7.45;88.42
80976;BME280;70437;49.466;11.002;2024-02-26T08:12:47;96630.69;;;7.35;88.40
80976;BME280;70437;49.466;11.002;2024-02-26T08:15:17;96632.91;;;7.38;93.43
80976;BME280;70437;49.466;11.002;2024-02-26T08:17:50;96638.66;;;7.47;89.37
80976;BME280;70437;49.466;11.002;2024-02-26T08:20:22;96642.41;;;7.34;87.54
80976;BME280;70437;49.466;11.002;2024-02-26T08:22:52;96640.56;;;7.34;89.42
80976;BME280;70437;49.466;11.002;2024-02-26T08:25:26;96638.97;;;7.22;89.42
80976;BME280;70437;49.466;11.002;2024-02-26T08:28:00;96643.47;;;7.33;89.86
80976;BME280;70437;49.466;11.002;2024-02-26T08:30:31;96641.78;;;7.44;88.43
80976;BME280;70437;49.466;11.002;2024-02-26T08:33:05;96644.44;;;7.44;88.27
80976;BME280;70437;49.466;11.002;2024-02-26T08:35:37;96644.41;;;7.27;88.28
80976;BME280;70437;49.466;11.002;2024-02-26T08:38:07;96644.66;;;7.25;88.54
80976;BME280;70437;49.466;11.002;2024-02-26T08:40:45;96653.78;;;7.29;88.67
80976;BME280;70437;49.466;11.002;2024-02-26T08:43:14;96653.31;;;7.32;87.83
80976;BME280;70437;49.466;11.002;2024-02-26T08:45:44;96645.84;;;7.46;88.38
80976;BME280;70437;49.466;11.002;2024-02-26T08:48:14;96645.19;;;7.56;89.11
80976;BME280;70437;49.466;11.002;2024-02-26T08:50:44;96650.16;;;7.64;87.04
80976;BME280;70437;49.466;11.002;2024-02-26T08:53:15;96648.13;;;7.71;89.47
80976;BME280;70437;49.466;11.002;2024-02-26T08:56:07;96641.72;;;7.72;88.19
80976;BME280;70437;49.466;11.002;2024-02-26T08:58:46;96643.69;;;7.94;89.14
80976;BME280;70437;49.466;11.002;2024-02-26T09:01:16;96642.47;;;8.18;87.45
80976;BME280;70437;49.466;11.002;2024-02-26T09:03:46;96650.78;;;8.39;85.28
80976;BME280;70437;49.466;11.002;2024-02-26T09:06:16;96636.41;;;8.23;86.50
80976;BME280;70437;49.466;11.002;2024-02-26T09:08:46;96635.16;;;8.47;84.43
80976;BME280;70437;49.466;11.002;2024-02-26T09:11:17;96631.38;;;8.65;83.04
80976;BME280;70437;49.466;11.002;2024-02-26T09:13:50;96631.59;;;8.80;80.39
80976;BME280;70437;49.466;11.002;2024-02-26T09:16:21;96631.28;;;8.99;76.80
80976;BME280;70437;49.466;11.002;2024-02-26T09:18:50;96629.94;;;9.23;74.12
80976;BME280;70437;49.466;11.002;2024-02-26T09:21:19;96628.91;;;9.83;70.14
80976;BME280;70437;49.466;11.002;2024-02-26T09:23:53;96632.94;;;10.66;63.58
80976;BME280;70437;49.466;11.002;2024-02-26T09:26:24;96631.06;;;10.66;61.82
80976;BME280;70437;49.466;11.002;2024-02-26T09:29:02;96623.47;;;10.48;62.03
80976;BME280;70437;49.466;11.002;2024-02-26T09:31:33;96628.63;;;10.54;61.41
80976;BME280;70437;49.466;11.002;2024-02-26T09:34:03;96621.13;;;10.19;63.47
80976;BME280;70437;49.466;11.002;2024-02-26T09:36:34;96611.50;;;9.86;62.83
80976;BME280;70437;49.466;11.002;2024-02-26T09:39:04;96620.19;;;9.66;66.55
80976;BME280;70437;49.466;11.002;2024-02-26T09:41:41;96607.78;;;9.28;67.33
80976;BME280;70437;49.466;11.002;2024-02-26T09:44:12;96591.75;;;9.01;68.47
80976;BME280;70437;49.466;11.002;2024-02-26T09:46:43;96581.28;;;9.21;67.33
80976;BME280;70437;49.466;11.002;2024-02-26T09:49:18;96582.88;;;9.22;66.95
80976;BME280;70437;49.466;11.002;2024-02-26T09:51:49;96589.28;;;8.94;67.46
80976;BME280;70437;49.466;11.002;2024-02-26T09:54:19;96601.25;;;9.14;66.17
80976;BME280;70437;49.466;11.002;2024-02-26T09:56:53;96607.56;;;9.29;65.37
80976;BME280;70437;49.466;11.002;2024-02-26T09:59:38;96608.75;;;9.44;64.02
80976;BME280;70437;49.466;11.002;2024-02-26T10:02:12;96611.47;;;9.49;63.33
80976;BME280;70437;49.466;11.002;2024-02-26T10:04:42;96616.22;;;9.42;63.72
80976;BME280;70437;49.466;11.002;2024-02-26T10:07:18;96627.88;;;9.30;64.61
80976;BME280;70437;49.466;11.002;2024-02-26T10:09:50;96627.50;;;9.49;63.70
80976;BME280;70437;49.466;11.002;2024-02-26T10:12:23;96632.03;;;9.75;62.91
80976;BME280;70437;49.466;11.002;2024-02-26T10:14:55;96636.31;;;9.76;62.39
80976;BME280;70437;49.466;11.002;2024-02-26T10:17:29;96637.50;;;9.91;62.04
80976;BME280;70437;49.466;11.002;2024-02-26T10:20:11;96636.41;;;9.86;62.29
80976;BME280;70437;49.466;11.002;2024-02-26T10:22:44;96649.78;;;10.19;61.24
80976;BME280;70437;49.466;11.002;2024-02-26T10:25:15;96644.38;;;10.51;59.50
80976;BME280;70437;49.466;11.002;2024-02-26T10:27:47;96635.72;;;10.86;57.22
80976;BME280;70437;49.466;11.002;2024-02-26T10:30:19;96641.56;;;10.73;58.41
80976;BME280;70437;49.466;11.002;2024-02-26T10:32:49;96643.19;;;10.84;58.04
80976;BME280;70437;49.466;11.002;2024-02-26T10:35:21;96645.56;;;10.75;58.10
80976;BME280;70437;49.466;11.002;2024-02-26T10:37:50;96648.00;;;10.77;58.10
80976;BME280;70437;49.466;11.002;2024-02-26T10:40:21;96652.88;;;10.85;57.34
80976;BME280;70437;49.466;11.002;2024-02-26T10:42:51;96653.63;;;10.80;57.50
80976;BME280;70437;49.466;11.002;2024-02-26T10:45:24;96646.69;;;10.84;57.84
80976;BME280;70437;49.466;11.002;2024-02-26T10:47:55;96650.81;;;11.07;56.83
80976;BME280;70437;49.466;11.002;2024-02-26T10:50:27;96655.09;;;11.08;56.57
80976;BME280;70437;49.466;11.002;2024-02-26T10:53:10;96648.97;;;11.18;56.05
80976;BME280;70437;49.466;11.002;2024-02-26T10:56:07;96642.63;;;11.60;53.81
80976;BME280;70437;49.466;11.002;2024-02-26T10:59:00;96641.81;;;11.54;53.10
80976;BME280;70437;49.466;11.002;2024-02-26T11:01:32;96650.47;;;12.28;52.09
80976;BME280;70437;49.466;11.002;2024-02-26T11:04:37;96653.25;;;12.98;49.56
80976;BME280;70437;49.466;11.002;2024-02-26T11:07:14;96656.16;;;13.11;48.04
80976;BME280;70437;49.466;11.002;2024-02-26T11:09:44;96665.53;;;13.19;49.04
80976;BME280;70437;49.466;11.002;2024-02-26T11:12:25;96665.28;;;13.70;46.98
80976;BME280;70437;49.466;11.002;2024-02-26T11:15:03;96656.34;;;14.14;46.43
80976;BME280;70437;49.466;11.002;2024-02-26T11:17:38;96661.31;;;15.13;43.02
80976;BME280;70437;49.466;11.002;2024-02-26T11:20:13;96668.31;;;15.57;42.13
80976;BME280;70437;49.466;11.002;2024-02-26T11:22:48;96662.81;;;16.51;40.07
80976;BME280;70437;49.466;11.002;2024-02-26T11:25:19;96654.78;;;16.00;38.53
80976;BME280;70437;49.466;11.002;2024-02-26T11:27:51;96656.81;;;15.89;39.36
80976;BME280;70437;49.466;11.002;2024-02-26T11:30:38;96660.75;;;16.29;37.61
80976;BME280;70437;49.466;11.002;2024-02-26T11:33:19;96653.03;;;16.23;38.64
80976;BME280;70437;49.466;11.002;2024-02-26T11:35:55;96648.75;;;16.03;38.09
80976;BME280;70437;49.466;11.002;2024-02-26T11:38:29;96651.59;;;16.44;37.88
80976;BME280;70437;49.466;11.002;2024-02-26T11:41:01;96651.41;;;16.40;37.13
80976;BME280;70437;49.466;11.002;2024-02-26T11:43:50;96655.41;;;16.76;35.52
80976;BME280;70437;49.466;11.002;2024-02-26T11:46:29;96663.44;;;15.59;37.94
80976;BME280;70437;49.466;11.002;2024-02-26T11:49:03;96663.72;;;15.57;38.16
80976;BME280;70437;49.466;11.002;2024-02-26T11:51:35;96662.97;;;15.33;38.68
80976;BME280;70437;49.466;11.002;2024-02-26T11:54:04;96659.50;;;15.89;37.22
80976;BME280;70437;49.466;11.002;2024-02-26T11:56:40;96663.59;;;16.38;36.61
80976;BME280;70437;49.466;11.002;2024-02-26T11:59:10;96653.66;;;16.33;36.77
80976;BME280;70437;49.466;11.002;2024-02-26T12:01:46;96647.41;;;16.52;36.67
80976;BME280;70437;49.466;11.002;2024-02-26T12:04:18;96647.34;;;16.57;35.86
80976;BME280;70437;49.466;11.002;2024-02-26T12:06:51;96644.91;;;17.02;35.11
80976;BME280;70437;49.466;11.002;2024-02-26T12:09:42;96642.94;;;16.61;35.40
80976;BME280;70437;49.466;11.002;2024-02-26T12:12:17;96642.88;;;16.93;34.84
80976;BME280;70437;49.466;11.002;2024-02-26T12:14:51;96638.47;;;17.25;35.06
80976;BME280;70437;49.466;11.002;2024-02-26T12:17:23;96645.19;;;16.86;36.25
80976;BME280;70437;49.466;11.002;2024-02-26T12:20:08;96656.41;;;16.47;36.15
80976;BME280;70437;49.466;11.002;2024-02-26T12:22:45;96650.06;;;16.38;36.40
80976;BME280;70437;49.466;11.002;2024-02-26T12:25:16;96649.41;;;16.79;36.18
80976;BME280;70437;49.466;11.002;2024-02-26T12:27:46;96655.78;;;16.36;36.83
80976;BME280;70437;49.466;11.002;2024-02-26T12:30:16;96652.88;;;15.81;38.24
80976;BME280;70437;49.466;11.002;2024-02-26T12:32:56;96657.66;;;14.80;40.57
80976;BME280;70437;49.466;11.002;2024-02-26T12:35:30;96656.00;;;14.60;41.47
80976;BME280;70437;49.466;11.002;2024-02-26T12:38:02;96656.50;;;14.28;42.87
80976;BME280;70437;49.466;11.002;2024-02-26T12:40:33;96654.28;;;14.93;42.22
80976;BME280;70437;49.466;11.002;2024-02-26T12:43:01;96659.66;;;15.79;40.84
80976;BME280;70437;49.466;11.002;2024-02-26T12:45:32;96652.09;;;16.79;38.49
80976;BME280;70437;49.466;11.002;2024-02-26T12:48:12;96647.34;;;17.39;36.72
80976;BME280;70437;49.466;11.002;2024-02-26T12:50:46;96651.47;;;16.82;37.18
80976;BME280;70437;49.466;11.002;2024-02-26T12:53:15;96645.78;;;16.83;37.50
80976;BME280;70437;49.466;11.002;2024-02-26T12:55:47;96658.09;;;16.89;37.67
80976;BME280;70437;49.466;11.002;2024-02-26T12:58:17;96662.94;;;16.60;38.63
80976;BME280;70437;49.466;11.002;2024-02-26T13:00:48;96662.84;;;16.65;38.54
80976;BME280;70437;49.466;11.002;2024-02-26T13:03:19;96666.22;;;17.03;38.47
80976;BME280;70437;49.466;11.002;2024-02-26T13:05:49;96661.50;;;17.50;37.21
80976;BME280;70437;49.466;11.002;2024-02-26T13:08:20;96661.50;;;16.81;38.15
80976;BME280;70437;49.466;11.002;2024-02-26T13:10:53;96673.22;;;16.44;39.36
80976;BME280;70437;49.466;11.002;2024-02-26T13:13:30;96666.66;;;16.64;38.75
80976;BME280;70437;49.466;11.002;2024-02-26T13:16:14;96669.53;;;17.00;38.50
80976;BME280;70437;49.466;11.002;2024-02-26T13:18:46;96666.00;;;17.41;37.32
80976;BME280;70437;49.466;11.002;2024-02-26T13:21:18;96669.56;;;18.14;35.16